sensor_id;sensor_type;location;lat;lon;timestamp;pressure;altitude;pressure_sealevel;temperature;humidity
70248;BME280;57641;51.416;5.506;2023-04-26T00:00:18;102045.44;;;9.62;50.57
70248;BME280;57641;51.416;5.506;2023-04-26T00:02:44;102042.53;;;9.54;50.47
70248;BME280;57641;51.416;5.506;2023-04-26T00:05:10;102043.28;;;9.56;50.89
70248;BME280;57641;51.416;5.506;2023-04-26T00:07:36;102036.63;;;9.62;50.56
70248;BME280;57641;51.416;5.506;2023-04-26T00:10:06;102031.06;;;9.65;50.46
70248;BME280;57641;51.416;5.506;2023-04-26T00:12:31;102044.25;;;9.66;50.46
70248;BME280;57641;51.416;5.506;2023-04-26T00:14:57;102041.31;;;9.58;50.47
70248;BME280;57641;51.416;5.506;2023-04-26T00:17:23;102043.72;;;9.50;50.68
70248;BME280;57641;51.416;5.506;2023-04-26T00:19:49;102036.97;;;9.46;50.65
70248;BME280;57641;51.416;5.506;2023-04-26T00:22:15;102040.44;;;9.47;50.67
70248;BME280;57641;51.416;5.506;2023-04-26T00:24:41;102043.69;;;9.39;50.97
70248;BME280;57641;51.416;5.506;2023-04-26T00:27:07;102038.41;;;9.15;51.10
70248;BME280;57641;51.416;5.506;2023-04-26T00:29:35;102043.63;;;9.17;51.51
70248;BME280;57641;51.416;5.506;2023-04-26T00:32:02;102040.00;;;9.18;51.20
70248;BME280;57641;51.416;5.506;2023-04-26T00:34:35;102037.41;;;9.05;51.34
70248;BME280;57641;51.416;5.506;2023-04-26T00:37:02;102040.28;;;9.02;51.67
70248;BME280;57641;51.416;5.506;2023-04-26T00:39:28;102038.25;;;9.06;50.88
70248;BME280;57641;51.416;5.506;2023-04-26T00:41:54;102035.31;;;8.98;51.10
70248;BME280;57641;51.416;5.506;2023-04-26T00:44:20;102045.31;;;8.70;51.34
70248;BME280;57641;51.416;5.506;2023-04-26T00:46:45;102039.41;;;8.67;51.70
70248;BME280;57641;51.416;5.506;2023-04-26T00:49:17;102040.75;;;8.72;51.80
70248;BME280;57641;51.416;5.506;2023-04-26T00:51:44;102042.66;;;8.70;51.74
70248;BME280;57641;51.416;5.506;2023-04-26T00:54:10;102042.06;;;8.67;51.61
70248;BME280;57641;51.416;5.506;2023-04-26T00:56:37;102034.59;;;8.72;51.18
70248;BME280;57641;51.416;5.506;2023-04-26T00:59:03;102035.88;;;8.66;51.53
70248;BME280;57641;51.416;5.506;2023-04-26T01:01:29;102040.56;;;8.63;51.59
70248;BME280;57641;51.416;5.506;2023-04-26T01:03:54;102041.66;;;8.60;51.66
70248;BME280;57641;51.416;5.506;2023-04-26T01:06:21;102033.56;;;8.62;51.68
70248;BME280;57641;51.416;5.506;2023-04-26T01:08:47;102036.53;;;8.57;51.72
70248;BME280;57641;51.416;5.506;2023-04-26T01:11:17;102039.53;;;8.53;51.71
70248;BME280;57641;51.416;5.506;2023-04-26T01:13:45;102041.00;;;8.57;51.80
70248;BME280;57641;51.416;5.506;2023-04-26T01:16:12;102038.88;;;8.62;51.43
70248;BME280;57641;51.416;5.506;2023-04-26T01:18:38;102040.28;;;8.55;51.14
70248;BME280;57641;51.416;5.506;2023-04-26T01:21:03;102042.09;;;8.54;51.53
70248;BME280;57641;51.416;5.506;2023-04-26T01:23:30;102033.94;;;8.44;51.56
70248;BME280;57641;51.416;5.506;2023-04-26T01:25:56;102045.84;;;8.39;51.61
70248;BME280;57641;51.416;5.506;2023-04-26T01:28:21;102047.44;;;8.29;52.35
70248;BME280;57641;51.416;5.506;2023-04-26T01:30:47;102047.13;;;8.33;51.73
70248;BME280;57641;51.416;5.506;2023-04-26T01:33:13;102051.28;;;8.25;51.98
70248;BME280;57641;51.416;5.506;2023-04-26T01:35:40;102056.34;;;8.28;52.02
70248;BME280;57641;51.416;5.506;2023-04-26T01:38:06;102058.69;;;8.20;51.88
70248;BME280;57641;51.416;5.506;2023-04-26T01:40:32;102053.19;;;8.23;51.41
70248;BME280;57641;51.416;5.506;2023-04-26T01:42:57;102051.41;;;7.98;52.26
70248;BME280;57641;51.416;5.506;2023-04-26T01:45:23;102049.69;;;8.10;52.30
70248;BME280;57641;51.416;5.506;2023-04-26T01:47:48;102044.69;;;8.05;52.41
70248;BME280;57641;51.416;5.506;2023-04-26T01:50:14;102057.34;;;8.01;52.77
70248;BME280;57641;51.416;5.506;2023-04-26T01:52:40;102045.13;;;7.99;52.87
70248;BME280;57641;51.416;5.506;2023-04-26T01:55:06;102049.19;;;7.92;52.70
70248;BME280;57641;51.416;5.506;2023-04-26T01:57:31;102046.91;;;7.98;52.60
70248;BME280;57641;51.416;5.506;2023-04-26T01:59:57;102049.56;;;7.98;51.93
70248;BME280;57641;51.416;5.506;2023-04-26T02:02:24;102044.06;;;7.89;52.59
70248;BME280;57641;51.416;5.506;2023-04-26T02:04:49;102053.97;;;7.87;52.89
70248;BME280;57641;51.416;5.506;2023-04-26T02:07:15;102046.84;;;7.87;52.48
70248;BME280;57641;51.416;5.506;2023-04-26T02:09:40;102044.81;;;7.78;52.85
70248;BME280;57641;51.416;5.506;2023-04-26T02:12:06;102048.00;;;7.83;52.55
70248;BME280;57641;51.416;5.506;2023-04-26T02:14:31;102041.97;;;7.81;52.41
70248;BME280;57641;51.416;5.506;2023-04-26T02:16:57;102044.72;;;7.80;52.17
70248;BME280;57641;51.416;5.506;2023-04-26T02:19:22;102045.34;;;7.71;52.77
70248;BME280;57641;51.416;5.506;2023-04-26T02:21:56;102048.53;;;7.76;52.35
70248;BME280;57641;51.416;5.506;2023-04-26T02:24:23;102058.81;;;7.68;52.58
70248;BME280;57641;51.416;5.506;2023-04-26T02:26:49;102050.53;;;7.72;52.55
70248;BME280;57641;51.416;5.506;2023-04-26T02:29:15;102048.44;;;7.77;52.48
70248;BME280;57641;51.416;5.506;2023-04-26T02:31:40;102043.22;;;7.63;52.68
70248;BME280;57641;51.416;5.506;2023-04-26T02:34:06;102047.53;;;7.51;52.75
70248;BME280;57641;51.416;5.506;2023-04-26T02:36:32;102039.31;;;7.56;52.40
70248;BME280;57641;51.416;5.506;2023-04-26T02:38:58;102040.34;;;7.53;52.62
70248;BME280;57641;51.416;5.506;2023-04-26T02:41:23;102035.97;;;7.40;52.69
70248;BME280;57641;51.416;5.506;2023-04-26T02:43:49;102045.34;;;7.45;52.76
70248;BME280;57641;51.416;5.506;2023-04-26T02:46:15;102039.91;;;7.34;53.47
70248;BME280;57641;51.416;5.506;2023-04-26T02:48:40;102038.41;;;7.43;53.23
70248;BME280;57641;51.416;5.506;2023-04-26T02:51:06;102032.56;;;7.38;53.12
70248;BME280;57641;51.416;5.506;2023-04-26T02:53:32;102040.75;;;7.47;52.24
70248;BME280;57641;51.416;5.506;2023-04-26T02:55:57;102030.44;;;7.30;52.51
70248;BME280;57641;51.416;5.506;2023-04-26T02:58:25;102029.69;;;7.28;52.81
70248;BME280;57641;51.416;5.506;2023-04-26T03:00:50;102024.72;;;7.24;53.07
70248;BME280;57641;51.416;5.506;2023-04-26T03:03:16;102026.50;;;7.23;53.57
70248;BME280;57641;51.416;5.506;2023-04-26T03:05:41;102025.66;;;7.22;53.12
70248;BME280;57641;51.416;5.506;2023-04-26T03:08:07;102026.19;;;7.28;52.99
70248;BME280;57641;51.416;5.506;2023-04-26T03:10:33;102028.22;;;7.24;53.26
70248;BME280;57641;51.416;5.506;2023-04-26T03:12:59;102016.63;;;7.25;52.54
70248;BME280;57641;51.416;5.506;2023-04-26T03:15:24;102020.63;;;7.05;53.63
70248;BME280;57641;51.416;5.506;2023-04-26T03:17:49;102027.94;;;7.14;52.93
70248;BME280;57641;51.416;5.506;2023-04-26T03:20:15;102021.59;;;7.17;53.01
70248;BME280;57641;51.416;5.506;2023-04-26T03:22:40;102025.97;;;7.18;52.47
70248;BME280;57641;51.416;5.506;2023-04-26T03:25:06;102018.50;;;7.10;52.42
70248;BME280;57641;51.416;5.506;2023-04-26T03:27:33;102014.13;;;6.97;52.78
70248;BME280;57641;51.416;5.506;2023-04-26T03:29:59;102018.50;;;6.98;53.06
70248;BME280;57641;51.416;5.506;2023-04-26T03:32:24;102015.84;;;6.98;53.76
70248;BME280;57641;51.416;5.506;2023-04-26T03:34:50;102018.28;;;7.01;52.79
70248;BME280;57641;51.416;5.506;2023-04-26T03:37:15;102017.13;;;7.05;52.94
70248;BME280;57641;51.416;5.506;2023-04-26T03:39:41;102013.59;;;7.04;52.73
70248;BME280;57641;51.416;5.506;2023-04-26T03:42:06;102015.84;;;6.98;52.96
70248;BME280;57641;51.416;5.506;2023-04-26T03:44:32;102014.63;;;6.89;52.98
70248;BME280;57641;51.416;5.506;2023-04-26T03:46:58;102012.19;;;6.86;53.64
70248;BME280;57641;51.416;5.506;2023-04-26T03:49:23;102011.25;;;6.87;53.24
70248;BME280;57641;51.416;5.506;2023-04-26T03:51:49;102013.22;;;6.84;53.31
70248;BME280;57641;51.416;5.506;2023-04-26T03:54:15;102016.25;;;6.92;53.31
70248;BME280;57641;51.416;5.506;2023-04-26T03:56:40;102017.81;;;6.82;52.97
70248;BME280;57641;51.416;5.506;2023-04-26T03:59:06;102015.72;;;6.72;53.61
70248;BME280;57641;51.416;5.506;2023-04-26T04:01:31;102019.47;;;6.83;53.98
70248;BME280;57641;51.416;5.506;2023-04-26T04:03:57;102017.91;;;6.80;53.58
70248;BME280;57641;51.416;5.506;2023-04-26T04:06:22;102020.25;;;6.85;53.52
70248;BME280;57641;51.416;5.506;2023-04-26T04:08:48;102023.09;;;6.82;53.32
70248;BME280;57641;51.416;5.506;2023-04-26T04:11:13;102022.88;;;6.85;53.61
70248;BME280;57641;51.416;5.506;2023-04-26T04:13:39;102017.81;;;6.82;53.83
70248;BME280;57641;51.416;5.506;2023-04-26T04:16:04;102019.38;;;6.84;53.29
70248;BME280;57641;51.416;5.506;2023-04-26T04:18:31;102020.78;;;6.90;53.37
70248;BME280;57641;51.416;5.506;2023-04-26T04:20:56;102015.88;;;6.84;53.74
70248;BME280;57641;51.416;5.506;2023-04-26T04:23:22;102016.19;;;6.79;53.25
70248;BME280;57641;51.416;5.506;2023-04-26T04:25:47;102010.78;;;6.81;53.79
70248;BME280;57641;51.416;5.506;2023-04-26T04:28:13;102027.25;;;6.86;53.26
70248;BME280;57641;51.416;5.506;2023-04-26T04:30:40;102022.81;;;6.86;53.52
70248;BME280;57641;51.416;5.506;2023-04-26T04:33:07;102022.88;;;6.85;54.03
70248;BME280;57641;51.416;5.506;2023-04-26T04:35:33;102026.19;;;6.88;53.67
70248;BME280;57641;51.416;5.506;2023-04-26T04:37:59;102023.75;;;6.85;53.67
70248;BME280;57641;51.416;5.506;2023-04-26T04:40:26;102026.19;;;6.88;54.05
70248;BME280;57641;51.416;5.506;2023-04-26T04:42:51;102026.19;;;6.88;54.15
70248;BME280;57641;51.416;5.506;2023-04-26T04:45:19;102028.53;;;6.93;53.95
70248;BME280;57641;51.416;5.506;2023-04-26T04:47:44;102032.78;;;6.95;53.97
70248;BME280;57641;51.416;5.506;2023-04-26T04:50:10;102033.34;;;6.73;53.90
70248;BME280;57641;51.416;5.506;2023-04-26T04:52:36;102044.88;;;6.72;54.42
70248;BME280;57641;51.416;5.506;2023-04-26T04:55:02;102043.94;;;6.73;54.60
70248;BME280;57641;51.416;5.506;2023-04-26T04:57:29;102050.34;;;6.84;54.93
70248;BME280;57641;51.416;5.506;2023-04-26T04:59:56;102048.94;;;6.78;55.05
70248;BME280;57641;51.416;5.506;2023-04-26T05:02:21;102043.16;;;6.86;54.87
70248;BME280;57641;51.416;5.506;2023-04-26T05:04:46;102046.69;;;6.99;55.09
70248;BME280;57641;51.416;5.506;2023-04-26T05:07:12;102050.00;;;7.02;55.23
70248;BME280;57641;51.416;5.506;2023-04-26T05:09:41;102045.13;;;7.09;55.47
70248;BME280;57641;51.416;5.506;2023-04-26T05:12:06;102048.03;;;7.18;55.81
70248;BME280;57641;51.416;5.506;2023-04-26T05:14:32;102044.22;;;7.22;55.43
70248;BME280;57641;51.416;5.506;2023-04-26T05:16:57;102049.00;;;7.30;55.25
70248;BME280;57641;51.416;5.506;2023-04-26T05:19:23;102049.84;;;7.31;55.21
70248;BME280;57641;51.416;5.506;2023-04-26T05:21:49;102053.69;;;7.39;55.33
70248;BME280;57641;51.416;5.506;2023-04-26T05:24:15;102049.34;;;7.38;56.18
70248;BME280;57641;51.416;5.506;2023-04-26T05:26:40;102049.34;;;7.38;56.51
70248;BME280;57641;51.416;5.506;2023-04-26T05:29:06;102049.88;;;7.43;56.15
70248;BME280;57641;51.416;5.506;2023-04-26T05:31:32;102054.25;;;7.44;55.56
70248;BME280;57641;51.416;5.506;2023-04-26T05:33:57;102059.34;;;7.60;56.12
70248;BME280;57641;51.416;5.506;2023-04-26T05:36:23;102055.84;;;7.59;56.03
70248;BME280;57641;51.416;5.506;2023-04-26T05:38:48;102046.94;;;7.73;56.20
70248;BME280;57641;51.416;5.506;2023-04-26T05:41:14;102061.50;;;7.80;56.50
70248;BME280;57641;51.416;5.506;2023-04-26T05:43:39;102067.88;;;7.90;56.60
70248;BME280;57641;51.416;5.506;2023-04-26T05:46:05;102062.22;;;7.95;56.99
70248;BME280;57641;51.416;5.506;2023-04-26T05:48:30;102058.41;;;7.99;57.64
70248;BME280;57641;51.416;5.506;2023-04-26T05:50:56;102058.63;;;8.09;57.93
70248;BME280;57641;51.416;5.506;2023-04-26T05:53:21;102066.03;;;8.16;58.04
70248;BME280;57641;51.416;5.506;2023-04-26T05:55:47;102059.44;;;8.22;57.09
70248;BME280;57641;51.416;5.506;2023-04-26T05:58:13;102065.19;;;8.16;57.18
70248;BME280;57641;51.416;5.506;2023-04-26T06:00:38;102066.13;;;8.27;56.93
70248;BME280;57641;51.416;5.506;2023-04-26T06:03:05;102050.50;;;8.35;57.50
70248;BME280;57641;51.416;5.506;2023-04-26T06:05:31;102059.31;;;8.48;58.01
70248;BME280;57641;51.416;5.506;2023-04-26T06:07:57;102056.13;;;8.56;58.23
70248;BME280;57641;51.416;5.506;2023-04-26T06:10:23;102060.66;;;8.67;57.87
70248;BME280;57641;51.416;5.506;2023-04-26T06:12:48;102055.22;;;8.68;57.59
70248;BME280;57641;51.416;5.506;2023-04-26T06:15:14;102059.75;;;8.79;58.52
70248;BME280;57641;51.416;5.506;2023-04-26T06:17:40;102066.84;;;8.91;58.10
70248;BME280;57641;51.416;5.506;2023-04-26T06:20:07;102074.81;;;8.91;58.13
70248;BME280;57641;51.416;5.506;2023-04-26T06:22:34;102076.63;;;8.90;58.18
70248;BME280;57641;51.416;5.506;2023-04-26T06:25:00;102075.72;;;9.03;58.17
70248;BME280;57641;51.416;5.506;2023-04-26T06:27:26;102080.25;;;9.13;57.98
70248;BME280;57641;51.416;5.506;2023-04-26T06:29:51;102079.22;;;9.27;57.24
70248;BME280;57641;51.416;5.506;2023-04-26T06:32:17;102072.81;;;9.29;56.85
70248;BME280;57641;51.416;5.506;2023-04-26T06:34:43;102088.09;;;9.39;56.88
70248;BME280;57641;51.416;5.506;2023-04-26T06:37:10;102087.75;;;9.43;56.57
70248;BME280;57641;51.416;5.506;2023-04-26T06:39:36;102086.59;;;9.58;57.26
70248;BME280;57641;51.416;5.506;2023-04-26T06:42:05;102093.66;;;9.70;56.66
70248;BME280;57641;51.416;5.506;2023-04-26T06:44:31;102096.81;;;9.75;56.44
70248;BME280;57641;51.416;5.506;2023-04-26T06:46:57;102090.28;;;9.91;56.56
70248;BME280;57641;51.416;5.506;2023-04-26T06:49:24;102091.75;;;10.06;55.88
70248;BME280;57641;51.416;5.506;2023-04-26T06:51:50;102095.53;;;10.14;55.79
70248;BME280;57641;51.416;5.506;2023-04-26T06:54:18;102096.28;;;10.28;55.14
70248;BME280;57641;51.416;5.506;2023-04-26T06:56:45;102090.75;;;10.31;55.00
70248;BME280;57641;51.416;5.506;2023-04-26T06:59:10;102092.19;;;10.35;53.62
70248;BME280;57641;51.416;5.506;2023-04-26T07:01:36;102088.19;;;10.40;53.39
70248;BME280;57641;51.416;5.506;2023-04-26T07:04:02;102087.94;;;10.43;52.59
70248;BME280;57641;51.416;5.506;2023-04-26T07:06:29;102091.34;;;10.34;52.75
70248;BME280;57641;51.416;5.506;2023-04-26T07:08:57;102091.44;;;10.55;52.87
70248;BME280;57641;51.416;5.506;2023-04-26T07:11:24;102086.81;;;10.68;51.63
70248;BME280;57641;51.416;5.506;2023-04-26T07:13:50;102088.50;;;10.80;50.91
70248;BME280;57641;51.416;5.506;2023-04-26T07:16:15;102081.97;;;10.73;51.05
70248;BME280;57641;51.416;5.506;2023-04-26T07:18:41;102087.63;;;10.91;50.89
70248;BME280;57641;51.416;5.506;2023-04-26T07:21:07;102092.34;;;10.98;50.01
70248;BME280;57641;51.416;5.506;2023-04-26T07:23:33;102093.00;;;11.12;50.20
70248;BME280;57641;51.416;5.506;2023-04-26T07:25:59;102086.59;;;11.14;50.35
70248;BME280;57641;51.416;5.506;2023-04-26T07:28:32;102093.72;;;11.25;50.14
70248;BME280;57641;51.416;5.506;2023-04-26T07:30:58;102094.94;;;11.21;49.42
70248;BME280;57641;51.416;5.506;2023-04-26T07:33:24;102093.56;;;11.26;48.83
70248;BME280;57641;51.416;5.506;2023-04-26T07:35:54;102083.94;;;11.35;48.38
70248;BME280;57641;51.416;5.506;2023-04-26T07:38:21;102089.75;;;11.40;48.44
70248;BME280;57641;51.416;5.506;2023-04-26T07:40:47;102086.31;;;11.49;48.90
70248;BME280;57641;51.416;5.506;2023-04-26T07:43:13;102082.72;;;11.60;48.07
70248;BME280;57641;51.416;5.506;2023-04-26T07:45:40;102080.28;;;11.68;47.28
70248;BME280;57641;51.416;5.506;2023-04-26T07:48:06;102077.94;;;11.74;47.73
70248;BME280;57641;51.416;5.506;2023-04-26T07:50:32;102072.59;;;11.74;46.03
70248;BME280;57641;51.416;5.506;2023-04-26T07:52:57;102071.22;;;11.80;46.44
70248;BME280;57641;51.416;5.506;2023-04-26T07:55:23;102079.41;;;11.67;45.58
70248;BME280;57641;51.416;5.506;2023-04-26T07:57:48;102078.53;;;11.99;45.55
70248;BME280;57641;51.416;5.506;2023-04-26T08:00:14;102075.81;;;12.19;45.15
70248;BME280;57641;51.416;5.506;2023-04-26T08:02:43;102081.25;;;12.08;45.71
70248;BME280;57641;51.416;5.506;2023-04-26T08:05:11;102085.00;;;12.06;44.96
70248;BME280;57641;51.416;5.506;2023-04-26T08:07:38;102087.44;;;12.09;43.63
70248;BME280;57641;51.416;5.506;2023-04-26T08:10:05;102085.75;;;11.87;42.87
70248;BME280;57641;51.416;5.506;2023-04-26T08:12:32;102088.00;;;12.12;43.27
70248;BME280;57641;51.416;5.506;2023-04-26T08:14:59;102098.81;;;12.11;43.01
70248;BME280;57641;51.416;5.506;2023-04-26T08:17:25;102103.13;;;12.23;44.37
70248;BME280;57641;51.416;5.506;2023-04-26T08:19:51;102105.94;;;12.01;43.14
70248;BME280;57641;51.416;5.506;2023-04-26T08:22:17;102109.44;;;12.22;43.01
70248;BME280;57641;51.416;5.506;2023-04-26T08:24:47;102106.84;;;12.11;43.41
70248;BME280;57641;51.416;5.506;2023-04-26T08:27:14;102092.47;;;12.33;44.90
70248;BME280;57641;51.416;5.506;2023-04-26T08:29:40;102090.06;;;12.30;42.74
70248;BME280;57641;51.416;5.506;2023-04-26T08:32:05;102082.81;;;12.41;43.53
70248;BME280;57641;51.416;5.506;2023-04-26T08:34:31;102085.69;;;12.28;43.64
70248;BME280;57641;51.416;5.506;2023-04-26T08:36:57;102087.72;;;12.36;43.59
70248;BME280;57641;51.416;5.506;2023-04-26T08:39:22;102089.94;;;12.31;43.04
70248;BME280;57641;51.416;5.506;2023-04-26T08:41:53;102089.47;;;12.56;43.14
70248;BME280;57641;51.416;5.506;2023-04-26T08:44:23;102092.28;;;12.55;42.92
70248;BME280;57641;51.416;5.506;2023-04-26T08:46:56;102092.69;;;12.20;41.46
70248;BME280;57641;51.416;5.506;2023-04-26T08:49:40;102083.13;;;12.27;43.55
70248;BME280;57641;51.416;5.506;2023-04-26T08:52:11;102072.84;;;12.53;43.59
70248;BME280;57641;51.416;5.506;2023-04-26T08:54:38;102076.66;;;12.69;44.18
70248;BME280;57641;51.416;5.506;2023-04-26T08:57:08;102080.09;;;12.91;43.24
70248;BME280;57641;51.416;5.506;2023-04-26T08:59:37;102082.31;;;12.66;41.12
70248;BME280;57641;51.416;5.506;2023-04-26T09:02:07;102077.28;;;12.43;40.85
70248;BME280;57641;51.416;5.506;2023-04-26T09:04:34;102084.63;;;12.41;41.94
70248;BME280;57641;51.416;5.506;2023-04-26T09:07:02;102084.88;;;12.38;41.92
70248;BME280;57641;51.416;5.506;2023-04-26T09:09:34;102089.75;;;12.23;39.39
70248;BME280;57641;51.416;5.506;2023-04-26T09:12:02;102083.66;;;12.42;39.83
70248;BME280;57641;51.416;5.506;2023-04-26T09:14:28;102083.06;;;12.38;38.51
70248;BME280;57641;51.416;5.506;2023-04-26T09:16:54;102078.75;;;12.47;39.63
70248;BME280;57641;51.416;5.506;2023-04-26T09:22:01;102077.72;;;12.88;40.25
70248;BME280;57641;51.416;5.506;2023-04-26T09:24:28;102075.81;;;12.59;38.83
70248;BME280;57641;51.416;5.506;2023-04-26T09:27:01;102073.50;;;12.95;37.26
70248;BME280;57641;51.416;5.506;2023-04-26T09:29:30;102071.25;;;13.00;37.15
70248;BME280;57641;51.416;5.506;2023-04-26T09:31:56;102067.22;;;13.15;36.17
70248;BME280;57641;51.416;5.506;2023-04-26T09:34:22;102068.88;;;13.54;35.01
70248;BME280;57641;51.416;5.506;2023-04-26T09:36:55;102073.97;;;13.58;35.61
70248;BME280;57641;51.416;5.506;2023-04-26T09:39:36;102071.03;;;13.41;35.54
70248;BME280;57641;51.416;5.506;2023-04-26T09:42:06;102069.47;;;13.39;36.29
70248;BME280;57641;51.416;5.506;2023-04-26T09:44:32;102067.19;;;13.05;36.86
70248;BME280;57641;51.416;5.506;2023-04-26T09:47:03;102068.59;;;13.38;36.07
70248;BME280;57641;51.416;5.506;2023-04-26T09:49:31;102072.06;;;12.81;35.98
70248;BME280;57641;51.416;5.506;2023-04-26T09:52:04;102075.22;;;13.44;36.21
70248;BME280;57641;51.416;5.506;2023-04-26T09:54:47;102069.69;;;13.84;36.20
70248;BME280;57641;51.416;5.506;2023-04-26T09:57:16;102074.03;;;13.94;35.72
70248;BME280;57641;51.416;5.506;2023-04-26T09:59:49;102066.44;;;13.90;35.84
70248;BME280;57641;51.416;5.506;2023-04-26T10:04:51;102064.00;;;14.06;35.47
70248;BME280;57641;51.416;5.506;2023-04-26T10:07:19;102060.69;;;14.22;35.60
70248;BME280;57641;51.416;5.506;2023-04-26T10:09:45;102065.03;;;14.23;34.76
70248;BME280;57641;51.416;5.506;2023-04-26T10:12:13;102059.03;;;14.02;34.93
70248;BME280;57641;51.416;5.506;2023-04-26T10:14:40;102066.47;;;14.17;34.75
70248;BME280;57641;51.416;5.506;2023-04-26T10:17:06;102065.84;;;14.33;35.11
70248;BME280;57641;51.416;5.506;2023-04-26T10:19:33;102072.59;;;14.47;34.53
70248;BME280;57641;51.416;5.506;2023-04-26T10:22:11;102056.56;;;14.27;34.38
70248;BME280;57641;51.416;5.506;2023-04-26T10:24:39;102058.38;;;14.36;34.69
70248;BME280;57641;51.416;5.506;2023-04-26T10:27:05;102062.13;;;14.44;33.87
70248;BME280;57641;51.416;5.506;2023-04-26T10:32:18;102057.84;;;14.23;33.95
70248;BME280;57641;51.416;5.506;2023-04-26T10:34:44;102049.34;;;14.01;33.79
70248;BME280;57641;51.416;5.506;2023-04-26T10:37:29;102056.13;;;14.32;33.72
70248;BME280;57641;51.416;5.506;2023-04-26T10:40:22;102042.50;;;14.70;32.25
70248;BME280;57641;51.416;5.506;2023-04-26T10:42:48;102044.31;;;14.79;32.56
70248;BME280;57641;51.416;5.506;2023-04-26T10:45:27;102034.03;;;15.10;32.72
70248;BME280;57641;51.416;5.506;2023-04-26T10:48:18;102034.09;;;15.18;31.65
70248;BME280;57641;51.416;5.506;2023-04-26T10:59:10;102028.66;;;14.93;31.85
70248;BME280;57641;51.416;5.506;2023-04-26T11:01:37;102024.28;;;14.74;31.43
70248;BME280;57641;51.416;5.506;2023-04-26T11:04:07;102030.69;;;14.81;32.01
70248;BME280;57641;51.416;5.506;2023-04-26T11:09:36;102031.25;;;14.40;32.05
70248;BME280;57641;51.416;5.506;2023-04-26T11:12:14;102022.16;;;14.50;31.63
70248;BME280;57641;51.416;5.506;2023-04-26T11:14:41;102027.25;;;14.44;31.13
70248;BME280;57641;51.416;5.506;2023-04-26T11:17:08;102024.16;;;14.66;31.94
70248;BME280;57641;51.416;5.506;2023-04-26T11:19:34;102017.75;;;14.76;32.37
70248;BME280;57641;51.416;5.506;2023-04-26T11:22:01;102019.06;;;14.90;32.29
70248;BME280;57641;51.416;5.506;2023-04-26T11:24:30;102019.78;;;14.65;31.22
70248;BME280;57641;51.416;5.506;2023-04-26T11:26:57;102021.00;;;14.53;32.13
70248;BME280;57641;51.416;5.506;2023-04-26T11:29:24;102016.56;;;14.61;32.01
70248;BME280;57641;51.416;5.506;2023-04-26T11:31:52;102011.25;;;14.79;31.86
70248;BME280;57641;51.416;5.506;2023-04-26T11:34:30;102012.38;;;14.59;32.12
70248;BME280;57641;51.416;5.506;2023-04-26T11:36:56;102004.72;;;14.64;33.18
70248;BME280;57641;51.416;5.506;2023-04-26T11:39:21;102008.25;;;15.00;32.59
70248;BME280;57641;51.416;5.506;2023-04-26T11:41:47;102002.88;;;15.00;33.17
70248;BME280;57641;51.416;5.506;2023-04-26T11:44:22;101998.50;;;15.16;32.64
70248;BME280;57641;51.416;5.506;2023-04-26T11:46:48;101999.53;;;15.41;32.47
70248;BME280;57641;51.416;5.506;2023-04-26T11:49:14;101996.34;;;15.46;33.35
70248;BME280;57641;51.416;5.506;2023-04-26T11:51:41;101995.97;;;15.84;32.30
70248;BME280;57641;51.416;5.506;2023-04-26T11:54:06;101996.69;;;15.43;31.31
70248;BME280;57641;51.416;5.506;2023-04-26T11:56:32;102000.63;;;15.31;32.65
70248;BME280;57641;51.416;5.506;2023-04-26T11:58:57;101999.78;;;15.30;32.74
70248;BME280;57641;51.416;5.506;2023-04-26T12:01:49;102009.66;;;15.47;32.89
70248;BME280;57641;51.416;5.506;2023-04-26T12:04:15;102002.22;;;15.41;32.26
70248;BME280;57641;51.416;5.506;2023-04-26T12:06:42;102008.44;;;15.24;32.83
70248;BME280;57641;51.416;5.506;2023-04-26T12:09:08;102006.69;;;15.33;33.49
70248;BME280;57641;51.416;5.506;2023-04-26T12:11:35;102007.31;;;15.27;33.03
70248;BME280;57641;51.416;5.506;2023-04-26T12:14:01;102015.19;;;15.28;33.19
70248;BME280;57641;51.416;5.506;2023-04-26T12:16:26;102008.31;;;15.26;32.20
70248;BME280;57641;51.416;5.506;2023-04-26T12:18:53;102005.00;;;15.32;32.80
70248;BME280;57641;51.416;5.506;2023-04-26T12:21:19;102001.50;;;15.39;33.30
70248;BME280;57641;51.416;5.506;2023-04-26T12:23:45;101997.53;;;15.43;33.63
70248;BME280;57641;51.416;5.506;2023-04-26T12:26:13;102001.56;;;15.91;34.56
70248;BME280;57641;51.416;5.506;2023-04-26T12:28:39;102006.34;;;16.05;33.59
70248;BME280;57641;51.416;5.506;2023-04-26T12:31:06;102003.66;;;16.13;32.68
70248;BME280;57641;51.416;5.506;2023-04-26T12:33:32;102011.66;;;16.31;31.92
70248;BME280;57641;51.416;5.506;2023-04-26T12:36:25;102009.97;;;16.30;32.92
70248;BME280;57641;51.416;5.506;2023-04-26T12:38:50;102003.53;;;16.15;31.14
70248;BME280;57641;51.416;5.506;2023-04-26T12:41:15;102004.50;;;16.05;32.56
70248;BME280;57641;51.416;5.506;2023-04-26T12:43:41;102004.28;;;15.99;32.06
70248;BME280;57641;51.416;5.506;2023-04-26T12:46:07;101998.97;;;16.07;31.95
70248;BME280;57641;51.416;5.506;2023-04-26T12:48:32;102005.50;;;16.13;31.35
70248;BME280;57641;51.416;5.506;2023-04-26T12:50:58;102003.66;;;16.13;31.19
70248;BME280;57641;51.416;5.506;2023-04-26T12:53:23;102001.25;;;16.28;31.66
70248;BME280;57641;51.416;5.506;2023-04-26T12:55:49;102013.00;;;16.27;31.26
70248;BME280;57641;51.416;5.506;2023-04-26T12:58:14;102015.41;;;16.04;30.24
70248;BME280;57641;51.416;5.506;2023-04-26T13:00:40;102013.00;;;15.93;30.90
70248;BME280;57641;51.416;5.506;2023-04-26T13:03:05;102006.72;;;15.84;30.12
70248;BME280;57641;51.416;5.506;2023-04-26T13:05:31;102013.44;;;15.80;30.92
70248;BME280;57641;51.416;5.506;2023-04-26T13:07:57;102007.38;;;15.78;31.39
70248;BME280;57641;51.416;5.506;2023-04-26T13:10:24;102002.34;;;15.40;31.23
70248;BME280;57641;51.416;5.506;2023-04-26T13:12:50;101997.31;;;15.19;31.84